HomeShort term forecast

Short term forecast

Graphical weather forecast for for Montreal:

Short term forecast

The above graphic is automatically refreshed every 3 hours.

Hourly Experimental Weather Forecast for the next 72 hours


 Date & Hour   Temp   Feel   Baro   Hum   Speed & Bearing   Wind Gust   Precip.%   Precip.   Visibility   Cloud cover   Conditions 
 12/07/2024 - 23:00  23.0°C  23.4°C  1019.5 hPa  84%  6.5 km/h   13.7 km/h  4%  --  23.1 km  11%  Clear sky 
 13/07/2024 - 00:00  22.4°C  22.7°C  1019.4 hPa  87%  6.2 km/h   12.1 km/h  0%  --  22.9 km  11%  Clear sky 
 13/07/2024 - 01:00  21.7°C  22.1°C  1019.3 hPa  89%  6.6 km/h   11.3 km/h  0%  --  21.0 km  25%  Mostly clear 
 13/07/2024 - 02:00  21.2°C  21.4°C  1019.2 hPa  91%  6.8 km/h   12.5 km/h  0%  --  19.9 km  18%  Mostly clear 
 13/07/2024 - 03:00  20.8°C  21.0°C  1019.1 hPa  92%  7.0 km/h   13.8 km/h  0%  --  18.1 km  30%  Mostly clear 
 13/07/2024 - 04:00  20.4°C  20.6°C  1019.2 hPa  93%  7.3 km/h   15.7 km/h  0%  --  17.0 km  39%  Partly cloudy 
 13/07/2024 - 05:00  20.1°C  20.2°C  1019.3 hPa  93%  7.4 km/h   16.3 km/h  0%  --  17.7 km  36%  Mostly clear 
 13/07/2024 - 06:00  20.3°C  20.8°C  1019.4 hPa  93%  8.0 km/h   17.4 km/h  2%  --  16.1 km  35%  Mostly clear 
 13/07/2024 - 07:00  21.1°C  22.5°C  1019.5 hPa  90%  9.1 km/h   20.0 km/h  0%  --  19.1 km  29%  Mostly clear 
 13/07/2024 - 08:00  22.3°C  23.5°C  1019.6 hPa  86%  10.1 km/h   19.8 km/h  0%  --  21.5 km  36%  Mostly clear 
 13/07/2024 - 09:00  23.5°C  24.7°C  1019.6 hPa  82%  10.5 km/h   18.9 km/h  0%  --  23.5 km  40%  Partly cloudy 
 13/07/2024 - 10:00  25.0°C  26.3°C  1019.4 hPa  76%  11.6 km/h   19.9 km/h  2%  --  25.3 km  30%  Mostly clear 
 13/07/2024 - 11:00  26.1°C  27.2°C  1019.2 hPa  72%  12.4 km/h   21.7 km/h  2%  --  25.8 km  28%  Mostly clear 
 13/07/2024 - 12:00  27.0°C  27.9°C  1018.7 hPa  67%  13.5 km/h   24.3 km/h  11%  0.60 mm/h  25.3 km  23%  Drizzle 
 13/07/2024 - 13:00  27.4°C  27.9°C  1018.5 hPa  66%  14.5 km/h   26.4 km/h  15%  --  19.8 km  34%  Mostly clear 
 13/07/2024 - 14:00  27.8°C  28.2°C  1018.1 hPa  66%  13.9 km/h   27.2 km/h  11%  0.68 mm/h  18.0 km  48%  Drizzle 
 13/07/2024 - 15:00  28.1°C  28.9°C  1018.0 hPa  65%  13.7 km/h   26.8 km/h  8%  1.81 mm/h  18.7 km  28%  Mostly clear 
 13/07/2024 - 16:00  28.5°C  29.7°C  1017.5 hPa  61%  13.1 km/h   23.8 km/h  6%  --  27.4 km  18%  Mostly clear 
 13/07/2024 - 17:00  29.0°C  30.2°C  1017.0 hPa  60%  13.1 km/h   24.1 km/h  5%  --  27.8 km  20%  Mostly clear 
 13/07/2024 - 18:00  28.6°C  29.9°C  1016.9 hPa  61%  12.2 km/h   23.3 km/h  4%  --  27.1 km  16%  Mostly clear 
 13/07/2024 - 19:00  27.9°C  29.3°C  1016.9 hPa  63%  9.9 km/h   21.7 km/h  0%  --  26.8 km  14%  Mostly clear 
 13/07/2024 - 20:00  26.8°C  27.5°C  1017.0 hPa  66%  7.6 km/h   19.2 km/h  0%  --  26.4 km  8%  Clear sky 
 13/07/2024 - 21:00  25.5°C  25.5°C  1017.1 hPa  71%  7.3 km/h   17.4 km/h  0%  --  26.9 km  0%  Clear sky 
 13/07/2024 - 22:00  24.3°C  24.1°C  1017.2 hPa  75%  8.2 km/h   19.1 km/h  0%  --  26.4 km  0%  Clear sky 
 13/07/2024 - 23:00  23.3°C  22.9°C  1017.2 hPa  79%  8.7 km/h   19.1 km/h  0%  --  26.1 km  0%  Clear sky 
 14/07/2024 - 00:00  22.5°C  22.0°C  1017.0 hPa  82%  8.7 km/h   19.0 km/h  0%  --  25.8 km  1%  Clear sky 
 14/07/2024 - 01:00  21.5°C  20.9°C  1016.7 hPa  84%  9.3 km/h   20.0 km/h  0%  --  25.7 km  1%  Clear sky 
 14/07/2024 - 02:00  21.0°C  20.2°C  1016.3 hPa  86%  9.8 km/h   20.1 km/h  0%  --  25.2 km  1%  Clear sky 
 14/07/2024 - 03:00  20.4°C  19.5°C  1016.2 hPa  88%  10.3 km/h   21.0 km/h  0%  --  23.9 km  2%  Clear sky 
 14/07/2024 - 04:00  19.9°C  19.1°C  1016.1 hPa  90%  9.8 km/h   19.3 km/h  0%  --  22.5 km  5%  Clear sky 
 14/07/2024 - 05:00  19.7°C  18.9°C  1016.1 hPa  90%  9.8 km/h   19.0 km/h  0%  --  20.7 km  8%  Clear sky 
 14/07/2024 - 06:00  20.0°C  19.9°C  1016.1 hPa  89%  10.1 km/h   19.8 km/h  0%  --  20.4 km  9%  Clear sky 
 14/07/2024 - 07:00  20.9°C  21.9°C  1016.2 hPa  86%  11.2 km/h   22.6 km/h  0%  --  21.3 km  15%  Mostly clear 
 14/07/2024 - 08:00  22.1°C  23.3°C  1016.2 hPa  82%  12.0 km/h   22.4 km/h  0%  --  22.8 km  19%  Mostly clear 
 14/07/2024 - 09:00  23.5°C  25.1°C  1016.0 hPa  78%  11.7 km/h   20.9 km/h  0%  --  24.4 km  12%  Clear sky 
 14/07/2024 - 10:00  25.2°C  27.0°C  1015.7 hPa  74%  11.5 km/h   20.2 km/h  0%  --  26.1 km  8%  Clear sky 
 14/07/2024 - 11:00  26.6°C  28.3°C  1015.3 hPa  69%  11.7 km/h   20.8 km/h  0%  --  27.2 km  6%  Clear sky 
 14/07/2024 - 12:00  27.9°C  29.5°C  1014.9 hPa  64%  12.5 km/h   24.2 km/h  0%  --  28.1 km  4%  Clear sky 
 14/07/2024 - 13:00  28.9°C  30.2°C  1014.3 hPa  60%  13.3 km/h   25.2 km/h  0%  --  25.6 km  7%  Clear sky 
 14/07/2024 - 14:00  29.5°C  30.5°C  1013.6 hPa  56%  14.2 km/h   26.4 km/h  0%  --  26.4 km  15%  Mostly clear 
 14/07/2024 - 15:00  30.0°C  31.0°C  1013.0 hPa  54%  15.2 km/h   28.4 km/h  0%  --  28.3 km  9%  Clear sky 
 14/07/2024 - 16:00  30.2°C  31.4°C  1012.4 hPa  52%  15.8 km/h   29.1 km/h  0%  --  28.9 km  2%  Clear sky 
 14/07/2024 - 17:00  29.9°C  31.1°C  1011.7 hPa  52%  15.3 km/h   29.4 km/h  0%  --  28.5 km  4%  Clear sky 
 14/07/2024 - 18:00  29.3°C  30.5°C  1011.2 hPa  55%  13.9 km/h   30.1 km/h  0%  --  28.4 km  6%  Clear sky 
 14/07/2024 - 19:00  28.3°C  29.4°C  1011.0 hPa  59%  11.8 km/h   29.0 km/h  0%  --  28.5 km  6%  Clear sky 
 14/07/2024 - 20:00  27.1°C  27.3°C  1010.7 hPa  64%  9.8 km/h   28.0 km/h  0%  --  27.8 km  2%  Clear sky 
 14/07/2024 - 21:00  26.0°C  25.5°C  1010.6 hPa  68%  10.3 km/h   29.1 km/h  0%  --  27.8 km  8%  Clear sky 
 14/07/2024 - 22:00  24.8°C  24.2°C  1010.5 hPa  70%  10.8 km/h   27.9 km/h  0%  --  27.8 km  18%  Mostly clear 
 14/07/2024 - 23:00  23.5°C  22.8°C  1010.3 hPa  73%  10.9 km/h   26.1 km/h  0%  --  27.7 km  33%  Mostly clear 
 15/07/2024 - 00:00  22.4°C  21.8°C  1010.1 hPa  76%  10.6 km/h   26.1 km/h  0%  --  27.2 km  52%  Partly cloudy 
 15/07/2024 - 01:00  21.4°C  20.9°C  1009.6 hPa  78%  10.2 km/h   26.2 km/h  0%  --  26.6 km  57%  Partly cloudy 
 15/07/2024 - 02:00  21.1°C  20.5°C  1009.2 hPa  79%  10.1 km/h   27.2 km/h  0%  --  27.0 km  49%  Partly cloudy 
 15/07/2024 - 03:00  20.4°C  20.0°C  1009.0 hPa  80%  9.4 km/h   26.2 km/h  0%  --  26.8 km  57%  Partly cloudy 
 15/07/2024 - 04:00  20.1°C  19.7°C  1008.9 hPa  81%  9.5 km/h   25.7 km/h  0%  --  26.4 km  57%  Partly cloudy 
 15/07/2024 - 05:00  19.9°C  19.4°C  1008.9 hPa  81%  10.0 km/h   26.2 km/h  6%  --  26.0 km  58%  Partly cloudy 
 15/07/2024 - 06:00  20.3°C  20.1°C  1008.9 hPa  82%  9.5 km/h   25.6 km/h  7%  --  25.6 km  77%  Mostly cloudy 
 15/07/2024 - 07:00  21.0°C  20.6°C  1009.1 hPa  82%  10.4 km/h   29.5 km/h  6%  --  25.9 km  84%  Mostly cloudy 
 15/07/2024 - 08:00  21.9°C  21.6°C  1009.2 hPa  80%  11.9 km/h   31.9 km/h  0%  --  25.9 km  71%  Mostly cloudy 
 15/07/2024 - 09:00  22.7°C  22.0°C  1009.2 hPa  80%  13.7 km/h   32.4 km/h  5%  --  25.6 km  77%  Mostly cloudy 
 15/07/2024 - 10:00  23.8°C  22.7°C  1009.2 hPa  78%  15.5 km/h   32.7 km/h  6%  --  25.2 km  82%  Mostly cloudy 
 15/07/2024 - 11:00  24.6°C  23.4°C  1009.1 hPa  76%  16.1 km/h   33.2 km/h  7%  --  25.9 km  90%  Cloudy sky 
 15/07/2024 - 12:00  25.6°C  24.6°C  1008.9 hPa  74%  17.1 km/h   35.0 km/h  7%  --  24.0 km  82%  Mostly cloudy 
 15/07/2024 - 13:00  26.3°C  25.6°C  1008.6 hPa  72%  17.3 km/h   34.3 km/h  6%  --  22.8 km  69%  Mostly cloudy 
 15/07/2024 - 14:00  27.3°C  27.2°C  1008.2 hPa  69%  17.1 km/h   33.6 km/h  0%  --  22.5 km  50%  Partly cloudy 
 15/07/2024 - 15:00  28.3°C  28.2°C  1007.7 hPa  66%  17.2 km/h   32.7 km/h  0%  --  27.2 km  52%  Partly cloudy 
 15/07/2024 - 16:00  28.8°C  28.5°C  1007.3 hPa  66%  17.4 km/h   33.7 km/h  0%  --  28.3 km  62%  Partly cloudy 
 15/07/2024 - 17:00  28.4°C  28.1°C  1007.2 hPa  66%  17.1 km/h   34.3 km/h  0%  --  24.0 km  63%  Mostly cloudy 
 15/07/2024 - 18:00  28.0°C  28.4°C  1007.0 hPa  67%  14.3 km/h   29.0 km/h  0%  --  27.2 km  52%  Partly cloudy 
 15/07/2024 - 19:00  27.6°C  28.3°C  1007.0 hPa  68%  12.7 km/h   25.5 km/h  0%  --  27.5 km  39%  Partly cloudy 
 15/07/2024 - 20:00  27.0°C  27.3°C  1007.0 hPa  72%  11.5 km/h   23.4 km/h  0%  --  26.6 km  28%  Mostly clear 
 15/07/2024 - 21:00  25.8°C  25.9°C  1007.1 hPa  75%  9.8 km/h   18.8 km/h  27%  --  26.3 km  30%  Mostly clear 
 15/07/2024 - 22:00  24.9°C  25.0°C  1007.2 hPa  78%  8.7 km/h   15.2 km/h  32%  --  24.7 km  27%  Mostly clear 
 15/07/2024 - 23:00  24.0°C  24.2°C  1007.1 hPa  82%  7.8 km/h   12.6 km/h  0%  --  25.5 km  14%  Mostly clear 

Weather data sources : HRRR, GFS, Weatherkit, NOAA, Deutscher Wetterdienst, ECMWF and JMA

Never based important decision based on the weather forecast published on this website

 

Past weather and reports

Past weatherFind in this section the past weather conditions, weather archive, graphics, reports and statistics.

Current conditions

Current weather condition for MontrealAll you need to know about the current weather conditions for Montreal. Weather data is updated every 10 minutes.

Weather forecast

Current Montreal weatherSince 2004, celinium.com website has provided accurate weather forecast for Montreal's island.